Terminal Aerodrome Forecast
Issued by NWS

Home | Current Version | Previous Version | Text Only | Print | Product List | Glossary Off
Versions: 1 2 3 4 5 6 7 8 9 10 11 12 13 14

046
FTUS43 KUNR 251720
TAFGCC
TAF
KGCC 251720Z 2518/2618 01011G21KT P6SM SCT120
     FM260100 03010KT P6SM -TSRA BKN050CB OVC100
     FM261000 19005KT P6SM BKN200=

USA.gov is the U.S. government's official web portal to all federal, state and local government web resources and services.